sensor_id;sensor_type;location;lat;lon;timestamp;P1;durP1;ratioP1;P2;durP2;ratioP2
37091;SDS011;23005;51.998;4.502;2023-01-23T00:00:11;35.80;;;20.00;;
37091;SDS011;23005;51.998;4.502;2023-01-23T00:01:34;42.85;;;20.85;;
37091;SDS011;23005;51.998;4.502;2023-01-23T00:02:55;32.28;;;19.60;;
37091;SDS011;23005;51.998;4.502;2023-01-23T00:04:16;33.40;;;18.80;;
37091;SDS011;23005;51.998;4.502;2023-01-23T00:05:36;35.13;;;19.73;;
37091;SDS011;23005;51.998;4.502;2023-01-23T00:06:57;39.60;;;21.42;;
37091;SDS011;23005;51.998;4.502;2023-01-23T00:08:18;39.13;;;19.80;;
37091;SDS011;23005;51.998;4.502;2023-01-23T00:09:39;37.35;;;19.35;;
37091;SDS011;23005;51.998;4.502;2023-01-23T00:11:02;27.83;;;18.38;;
37091;SDS011;23005;51.998;4.502;2023-01-23T00:12:24;38.75;;;20.17;;
37091;SDS011;23005;51.998;4.502;2023-01-23T00:13:44;37.05;;;19.63;;
37091;SDS011;23005;51.998;4.502;2023-01-23T00:15:05;37.07;;;19.93;;
37091;SDS011;23005;51.998;4.502;2023-01-23T00:16:29;33.20;;;19.35;;
37091;SDS011;23005;51.998;4.502;2023-01-23T00:17:51;37.00;;;19.25;;
37091;SDS011;23005;51.998;4.502;2023-01-23T00:19:12;33.22;;;17.90;;
37091;SDS011;23005;51.998;4.502;2023-01-23T00:20:32;38.53;;;19.23;;
37091;SDS011;23005;51.998;4.502;2023-01-23T00:21:57;30.00;;;17.90;;
37091;SDS011;23005;51.998;4.502;2023-01-23T00:23:18;35.92;;;20.15;;
37091;SDS011;23005;51.998;4.502;2023-01-23T00:24:38;30.55;;;17.83;;
37091;SDS011;23005;51.998;4.502;2023-01-23T00:26:03;32.00;;;17.48;;
37091;SDS011;23005;51.998;4.502;2023-01-23T00:27:25;33.53;;;18.70;;
37091;SDS011;23005;51.998;4.502;2023-01-23T00:28:46;35.65;;;18.83;;
37091;SDS011;23005;51.998;4.502;2023-01-23T00:30:07;35.08;;;19.42;;
37091;SDS011;23005;51.998;4.502;2023-01-23T00:31:30;31.85;;;18.08;;
37091;SDS011;23005;51.998;4.502;2023-01-23T00:32:52;36.47;;;17.73;;
37091;SDS011;23005;51.998;4.502;2023-01-23T00:34:13;31.38;;;18.05;;
37091;SDS011;23005;51.998;4.502;2023-01-23T00:35:34;39.55;;;19.42;;
37091;SDS011;23005;51.998;4.502;2023-01-23T00:36:55;37.80;;;18.92;;
37091;SDS011;23005;51.998;4.502;2023-01-23T00:38:15;28.38;;;18.05;;
37091;SDS011;23005;51.998;4.502;2023-01-23T00:39:36;33.83;;;18.27;;
37091;SDS011;23005;51.998;4.502;2023-01-23T00:40:57;28.80;;;17.48;;
37091;SDS011;23005;51.998;4.502;2023-01-23T00:42:17;35.35;;;19.13;;
37091;SDS011;23005;51.998;4.502;2023-01-23T00:43:38;34.17;;;17.15;;
37091;SDS011;23005;51.998;4.502;2023-01-23T00:44:59;32.70;;;18.48;;
37091;SDS011;23005;51.998;4.502;2023-01-23T00:46:20;43.92;;;18.50;;
37091;SDS011;23005;51.998;4.502;2023-01-23T00:47:42;34.35;;;18.10;;
37091;SDS011;23005;51.998;4.502;2023-01-23T00:49:02;37.70;;;18.02;;
37091;SDS011;23005;51.998;4.502;2023-01-23T00:50:23;43.67;;;21.25;;
37091;SDS011;23005;51.998;4.502;2023-01-23T00:51:44;34.70;;;19.05;;
37091;SDS011;23005;51.998;4.502;2023-01-23T00:53:05;35.72;;;18.92;;
37091;SDS011;23005;51.998;4.502;2023-01-23T00:54:26;32.00;;;17.98;;
37091;SDS011;23005;51.998;4.502;2023-01-23T00:55:47;34.60;;;19.52;;
37091;SDS011;23005;51.998;4.502;2023-01-23T00:57:08;37.97;;;18.85;;
37091;SDS011;23005;51.998;4.502;2023-01-23T00:58:29;34.33;;;19.15;;
37091;SDS011;23005;51.998;4.502;2023-01-23T00:59:49;33.92;;;18.52;;
37091;SDS011;23005;51.998;4.502;2023-01-23T01:01:10;41.28;;;20.88;;
37091;SDS011;23005;51.998;4.502;2023-01-23T01:02:31;36.80;;;18.88;;
37091;SDS011;23005;51.998;4.502;2023-01-23T01:03:53;39.13;;;17.92;;
37091;SDS011;23005;51.998;4.502;2023-01-23T01:05:14;32.78;;;18.23;;
37091;SDS011;23005;51.998;4.502;2023-01-23T01:06:34;39.80;;;19.75;;
37091;SDS011;23005;51.998;4.502;2023-01-23T01:07:55;40.92;;;19.30;;
37091;SDS011;23005;51.998;4.502;2023-01-23T01:09:15;37.60;;;19.02;;
37091;SDS011;23005;51.998;4.502;2023-01-23T01:10:38;34.42;;;19.35;;
37091;SDS011;23005;51.998;4.502;2023-01-23T01:11:58;31.17;;;18.13;;
37091;SDS011;23005;51.998;4.502;2023-01-23T01:13:19;36.53;;;19.73;;
37091;SDS011;23005;51.998;4.502;2023-01-23T01:14:40;38.90;;;18.60;;
37091;SDS011;23005;51.998;4.502;2023-01-23T01:16:00;39.13;;;18.77;;
37091;SDS011;23005;51.998;4.502;2023-01-23T01:17:21;37.17;;;18.42;;
37091;SDS011;23005;51.998;4.502;2023-01-23T01:18:42;35.75;;;18.67;;
37091;SDS011;23005;51.998;4.502;2023-01-23T01:20:04;33.78;;;17.75;;
37091;SDS011;23005;51.998;4.502;2023-01-23T01:21:26;41.72;;;19.10;;
37091;SDS011;23005;51.998;4.502;2023-01-23T01:22:47;40.33;;;19.92;;
37091;SDS011;23005;51.998;4.502;2023-01-23T01:24:07;37.47;;;19.38;;
37091;SDS011;23005;51.998;4.502;2023-01-23T01:25:29;40.80;;;19.63;;
37091;SDS011;23005;51.998;4.502;2023-01-23T01:28:10;34.60;;;18.23;;
37091;SDS011;23005;51.998;4.502;2023-01-23T01:29:31;37.55;;;19.17;;
37091;SDS011;23005;51.998;4.502;2023-01-23T01:30:52;39.03;;;20.50;;
37091;SDS011;23005;51.998;4.502;2023-01-23T01:32:13;41.00;;;19.88;;
37091;SDS011;23005;51.998;4.502;2023-01-23T01:33:33;37.13;;;18.98;;
37091;SDS011;23005;51.998;4.502;2023-01-23T01:34:54;35.17;;;18.63;;
37091;SDS011;23005;51.998;4.502;2023-01-23T01:36:16;38.25;;;20.33;;
37091;SDS011;23005;51.998;4.502;2023-01-23T01:37:39;42.22;;;19.52;;
37091;SDS011;23005;51.998;4.502;2023-01-23T01:38:59;37.72;;;20.17;;
37091;SDS011;23005;51.998;4.502;2023-01-23T01:40:23;39.83;;;20.15;;
37091;SDS011;23005;51.998;4.502;2023-01-23T01:41:44;32.85;;;18.88;;
37091;SDS011;23005;51.998;4.502;2023-01-23T01:43:05;38.00;;;18.90;;
37091;SDS011;23005;51.998;4.502;2023-01-23T01:44:26;38.50;;;19.48;;
37091;SDS011;23005;51.998;4.502;2023-01-23T01:46:07;35.25;;;19.13;;
37091;SDS011;23005;51.998;4.502;2023-01-23T01:47:32;32.70;;;18.50;;
37091;SDS011;23005;51.998;4.502;2023-01-23T01:48:59;35.50;;;18.77;;
37091;SDS011;23005;51.998;4.502;2023-01-23T01:50:25;40.38;;;20.23;;
37091;SDS011;23005;51.998;4.502;2023-01-23T01:51:47;39.00;;;19.27;;
37091;SDS011;23005;51.998;4.502;2023-01-23T01:53:11;31.60;;;17.10;;
37091;SDS011;23005;51.998;4.502;2023-01-23T01:54:31;38.22;;;19.73;;
37091;SDS011;23005;51.998;4.502;2023-01-23T01:55:54;42.92;;;18.63;;
37091;SDS011;23005;51.998;4.502;2023-01-23T01:58:37;38.78;;;19.52;;
37091;SDS011;23005;51.998;4.502;2023-01-23T01:59:59;41.40;;;19.80;;
37091;SDS011;23005;51.998;4.502;2023-01-23T02:01:22;35.35;;;19.33;;
37091;SDS011;23005;51.998;4.502;2023-01-23T02:02:44;35.78;;;17.85;;
37091;SDS011;23005;51.998;4.502;2023-01-23T02:04:06;36.50;;;19.58;;
37091;SDS011;23005;51.998;4.502;2023-01-23T02:05:29;36.45;;;18.15;;
37091;SDS011;23005;51.998;4.502;2023-01-23T02:06:52;32.28;;;19.13;;
37091;SDS011;23005;51.998;4.502;2023-01-23T02:08:15;41.17;;;20.33;;
37091;SDS011;23005;51.998;4.502;2023-01-23T02:09:39;34.15;;;19.65;;
37091;SDS011;23005;51.998;4.502;2023-01-23T02:10:59;34.85;;;18.90;;
37091;SDS011;23005;51.998;4.502;2023-01-23T02:12:20;42.40;;;20.55;;
37091;SDS011;23005;51.998;4.502;2023-01-23T02:13:41;32.50;;;18.77;;
37091;SDS011;23005;51.998;4.502;2023-01-23T02:15:02;34.80;;;19.45;;
37091;SDS011;23005;51.998;4.502;2023-01-23T02:16:25;34.40;;;19.48;;
37091;SDS011;23005;51.998;4.502;2023-01-23T02:17:46;39.28;;;18.98;;
37091;SDS011;23005;51.998;4.502;2023-01-23T02:19:11;35.13;;;20.30;;
37091;SDS011;23005;51.998;4.502;2023-01-23T02:20:43;38.15;;;19.42;;
37091;SDS011;23005;51.998;4.502;2023-01-23T02:22:08;35.38;;;19.77;;
37091;SDS011;23005;51.998;4.502;2023-01-23T02:23:38;35.20;;;20.13;;
37091;SDS011;23005;51.998;4.502;2023-01-23T02:25:11;38.38;;;20.52;;
37091;SDS011;23005;51.998;4.502;2023-01-23T02:26:38;33.88;;;19.20;;
37091;SDS011;23005;51.998;4.502;2023-01-23T02:28:00;39.50;;;18.35;;
37091;SDS011;23005;51.998;4.502;2023-01-23T02:29:21;42.42;;;19.25;;
37091;SDS011;23005;51.998;4.502;2023-01-23T02:30:42;34.22;;;19.58;;
37091;SDS011;23005;51.998;4.502;2023-01-23T02:32:04;40.83;;;19.23;;
37091;SDS011;23005;51.998;4.502;2023-01-23T02:33:47;41.30;;;19.38;;
37091;SDS011;23005;51.998;4.502;2023-01-23T02:35:10;44.38;;;21.27;;
37091;SDS011;23005;51.998;4.502;2023-01-23T02:36:33;38.47;;;20.08;;
37091;SDS011;23005;51.998;4.502;2023-01-23T02:37:55;40.55;;;19.67;;
37091;SDS011;23005;51.998;4.502;2023-01-23T02:39:18;33.65;;;18.92;;
37091;SDS011;23005;51.998;4.502;2023-01-23T02:40:39;43.65;;;19.25;;
37091;SDS011;23005;51.998;4.502;2023-01-23T02:42:02;39.38;;;19.65;;
37091;SDS011;23005;51.998;4.502;2023-01-23T02:43:24;34.90;;;19.17;;
37091;SDS011;23005;51.998;4.502;2023-01-23T02:44:47;38.60;;;19.45;;
37091;SDS011;23005;51.998;4.502;2023-01-23T02:46:08;45.13;;;19.90;;
37091;SDS011;23005;51.998;4.502;2023-01-23T02:47:30;36.55;;;19.02;;
37091;SDS011;23005;51.998;4.502;2023-01-23T02:48:51;52.28;;;21.33;;
37091;SDS011;23005;51.998;4.502;2023-01-23T02:50:11;36.80;;;19.75;;
37091;SDS011;23005;51.998;4.502;2023-01-23T02:51:32;40.30;;;18.95;;
37091;SDS011;23005;51.998;4.502;2023-01-23T02:52:52;36.67;;;18.60;;
37091;SDS011;23005;51.998;4.502;2023-01-23T02:54:13;41.67;;;20.30;;
37091;SDS011;23005;51.998;4.502;2023-01-23T02:55:33;35.72;;;20.45;;
37091;SDS011;23005;51.998;4.502;2023-01-23T02:56:54;50.60;;;20.67;;
37091;SDS011;23005;51.998;4.502;2023-01-23T02:58:16;38.13;;;19.55;;
37091;SDS011;23005;51.998;4.502;2023-01-23T02:59:37;48.97;;;20.20;;
37091;SDS011;23005;51.998;4.502;2023-01-23T03:00:57;45.10;;;20.13;;
37091;SDS011;23005;51.998;4.502;2023-01-23T03:02:18;41.73;;;19.83;;
37091;SDS011;23005;51.998;4.502;2023-01-23T03:03:38;41.75;;;19.90;;
37091;SDS011;23005;51.998;4.502;2023-01-23T03:04:59;40.13;;;20.53;;
37091;SDS011;23005;51.998;4.502;2023-01-23T03:06:20;44.88;;;20.27;;
37091;SDS011;23005;51.998;4.502;2023-01-23T03:07:40;41.70;;;20.40;;
37091;SDS011;23005;51.998;4.502;2023-01-23T03:09:05;43.70;;;21.23;;
37091;SDS011;23005;51.998;4.502;2023-01-23T03:10:27;44.40;;;21.02;;
37091;SDS011;23005;51.998;4.502;2023-01-23T03:11:48;39.10;;;20.42;;
37091;SDS011;23005;51.998;4.502;2023-01-23T03:13:09;42.88;;;20.77;;
37091;SDS011;23005;51.998;4.502;2023-01-23T03:14:31;40.00;;;20.38;;
37091;SDS011;23005;51.998;4.502;2023-01-23T03:17:12;43.72;;;20.60;;
37091;SDS011;23005;51.998;4.502;2023-01-23T03:18:33;37.13;;;19.27;;
37091;SDS011;23005;51.998;4.502;2023-01-23T03:20:04;47.08;;;20.92;;
37091;SDS011;23005;51.998;4.502;2023-01-23T03:21:25;54.10;;;23.48;;
37091;SDS011;23005;51.998;4.502;2023-01-23T03:22:46;42.53;;;19.92;;
37091;SDS011;23005;51.998;4.502;2023-01-23T03:24:07;42.63;;;20.42;;
37091;SDS011;23005;51.998;4.502;2023-01-23T03:25:28;51.33;;;22.40;;
37091;SDS011;23005;51.998;4.502;2023-01-23T03:26:50;40.42;;;20.90;;
37091;SDS011;23005;51.998;4.502;2023-01-23T03:28:11;40.50;;;20.00;;
37091;SDS011;23005;51.998;4.502;2023-01-23T03:29:33;46.95;;;20.80;;
37091;SDS011;23005;51.998;4.502;2023-01-23T03:30:54;43.08;;;20.48;;
37091;SDS011;23005;51.998;4.502;2023-01-23T03:32:15;40.60;;;20.70;;
37091;SDS011;23005;51.998;4.502;2023-01-23T03:33:35;44.50;;;21.95;;
37091;SDS011;23005;51.998;4.502;2023-01-23T03:34:56;52.13;;;22.73;;
37091;SDS011;23005;51.998;4.502;2023-01-23T03:36:16;46.10;;;21.15;;
37091;SDS011;23005;51.998;4.502;2023-01-23T03:37:37;55.95;;;22.05;;
37091;SDS011;23005;51.998;4.502;2023-01-23T03:38:58;43.55;;;21.27;;
37091;SDS011;23005;51.998;4.502;2023-01-23T03:40:20;47.25;;;22.40;;
37091;SDS011;23005;51.998;4.502;2023-01-23T03:41:43;37.85;;;21.08;;
37091;SDS011;23005;51.998;4.502;2023-01-23T03:43:04;46.55;;;22.02;;
37091;SDS011;23005;51.998;4.502;2023-01-23T03:44:24;44.10;;;21.42;;
37091;SDS011;23005;51.998;4.502;2023-01-23T03:45:46;48.22;;;21.85;;
37091;SDS011;23005;51.998;4.502;2023-01-23T03:47:06;42.20;;;21.55;;
37091;SDS011;23005;51.998;4.502;2023-01-23T03:48:27;41.92;;;21.95;;
37091;SDS011;23005;51.998;4.502;2023-01-23T03:49:47;44.63;;;22.33;;
37091;SDS011;23005;51.998;4.502;2023-01-23T03:51:08;38.70;;;22.13;;
37091;SDS011;23005;51.998;4.502;2023-01-23T03:52:29;37.27;;;21.00;;
37091;SDS011;23005;51.998;4.502;2023-01-23T03:53:49;45.58;;;21.50;;
37091;SDS011;23005;51.998;4.502;2023-01-23T03:55:09;38.28;;;20.80;;
37091;SDS011;23005;51.998;4.502;2023-01-23T03:56:30;42.55;;;21.02;;
37091;SDS011;23005;51.998;4.502;2023-01-23T03:57:51;40.35;;;21.13;;
37091;SDS011;23005;51.998;4.502;2023-01-23T03:59:11;41.50;;;21.33;;
37091;SDS011;23005;51.998;4.502;2023-01-23T04:00:32;34.70;;;20.63;;
37091;SDS011;23005;51.998;4.502;2023-01-23T04:01:54;40.20;;;20.50;;
37091;SDS011;23005;51.998;4.502;2023-01-23T04:03:15;39.70;;;19.90;;
37091;SDS011;23005;51.998;4.502;2023-01-23T04:04:35;42.95;;;21.48;;
37091;SDS011;23005;51.998;4.502;2023-01-23T04:05:56;46.33;;;22.53;;
37091;SDS011;23005;51.998;4.502;2023-01-23T04:07:18;43.53;;;21.67;;
37091;SDS011;23005;51.998;4.502;2023-01-23T04:08:38;43.38;;;21.83;;
37091;SDS011;23005;51.998;4.502;2023-01-23T04:09:59;40.00;;;21.90;;
37091;SDS011;23005;51.998;4.502;2023-01-23T04:11:20;43.55;;;22.48;;
37091;SDS011;23005;51.998;4.502;2023-01-23T04:12:41;43.45;;;20.75;;
37091;SDS011;23005;51.998;4.502;2023-01-23T04:14:02;44.28;;;21.92;;
37091;SDS011;23005;51.998;4.502;2023-01-23T04:15:22;40.92;;;20.73;;
37091;SDS011;23005;51.998;4.502;2023-01-23T04:16:43;46.83;;;22.25;;
37091;SDS011;23005;51.998;4.502;2023-01-23T04:18:05;41.60;;;21.35;;
37091;SDS011;23005;51.998;4.502;2023-01-23T04:19:26;40.38;;;21.00;;
37091;SDS011;23005;51.998;4.502;2023-01-23T04:20:47;41.25;;;21.02;;
37091;SDS011;23005;51.998;4.502;2023-01-23T04:22:07;46.57;;;20.80;;
37091;SDS011;23005;51.998;4.502;2023-01-23T04:23:28;42.10;;;21.13;;
37091;SDS011;23005;51.998;4.502;2023-01-23T04:24:49;45.70;;;21.95;;
37091;SDS011;23005;51.998;4.502;2023-01-23T04:26:10;46.35;;;23.48;;
37091;SDS011;23005;51.998;4.502;2023-01-23T04:27:31;55.22;;;24.52;;
37091;SDS011;23005;51.998;4.502;2023-01-23T04:28:51;46.95;;;20.95;;
37091;SDS011;23005;51.998;4.502;2023-01-23T04:30:12;47.27;;;22.27;;
37091;SDS011;23005;51.998;4.502;2023-01-23T04:31:33;42.83;;;21.40;;
37091;SDS011;23005;51.998;4.502;2023-01-23T04:32:54;52.17;;;23.83;;
37091;SDS011;23005;51.998;4.502;2023-01-23T04:34:16;46.47;;;23.30;;
37091;SDS011;23005;51.998;4.502;2023-01-23T04:35:36;46.80;;;21.52;;
37091;SDS011;23005;51.998;4.502;2023-01-23T04:36:57;39.22;;;21.17;;
37091;SDS011;23005;51.998;4.502;2023-01-23T04:38:18;42.05;;;21.17;;
37091;SDS011;23005;51.998;4.502;2023-01-23T04:39:38;43.93;;;20.57;;
37091;SDS011;23005;51.998;4.502;2023-01-23T04:40:59;45.60;;;23.27;;
37091;SDS011;23005;51.998;4.502;2023-01-23T04:42:20;46.03;;;22.08;;
37091;SDS011;23005;51.998;4.502;2023-01-23T04:43:40;45.40;;;22.27;;
37091;SDS011;23005;51.998;4.502;2023-01-23T04:45:01;48.35;;;23.30;;
37091;SDS011;23005;51.998;4.502;2023-01-23T04:46:22;53.75;;;23.85;;
37091;SDS011;23005;51.998;4.502;2023-01-23T04:47:42;45.10;;;23.80;;
37091;SDS011;23005;51.998;4.502;2023-01-23T04:49:03;46.45;;;23.55;;
37091;SDS011;23005;51.998;4.502;2023-01-23T04:50:25;43.28;;;22.10;;
37091;SDS011;23005;51.998;4.502;2023-01-23T04:51:46;47.63;;;23.38;;
37091;SDS011;23005;51.998;4.502;2023-01-23T04:53:08;48.22;;;22.80;;
37091;SDS011;23005;51.998;4.502;2023-01-23T04:54:28;50.92;;;22.30;;
37091;SDS011;23005;51.998;4.502;2023-01-23T04:55:49;49.55;;;24.48;;
37091;SDS011;23005;51.998;4.502;2023-01-23T04:57:09;48.47;;;24.50;;
37091;SDS011;23005;51.998;4.502;2023-01-23T04:58:30;41.50;;;22.95;;
37091;SDS011;23005;51.998;4.502;2023-01-23T04:59:50;45.50;;;22.00;;
37091;SDS011;23005;51.998;4.502;2023-01-23T05:01:11;43.88;;;22.40;;
37091;SDS011;23005;51.998;4.502;2023-01-23T05:02:32;43.53;;;23.42;;
37091;SDS011;23005;51.998;4.502;2023-01-23T05:03:52;42.80;;;21.73;;
37091;SDS011;23005;51.998;4.502;2023-01-23T05:05:13;44.55;;;23.63;;
37091;SDS011;23005;51.998;4.502;2023-01-23T05:06:35;51.47;;;22.55;;
37091;SDS011;23005;51.998;4.502;2023-01-23T05:07:56;54.10;;;24.85;;
37091;SDS011;23005;51.998;4.502;2023-01-23T05:09:16;55.40;;;24.00;;
37091;SDS011;23005;51.998;4.502;2023-01-23T05:10:37;47.38;;;25.55;;
37091;SDS011;23005;51.998;4.502;2023-01-23T05:11:57;55.50;;;24.10;;
37091;SDS011;23005;51.998;4.502;2023-01-23T05:13:18;50.20;;;24.55;;
37091;SDS011;23005;51.998;4.502;2023-01-23T05:14:39;51.30;;;22.63;;
37091;SDS011;23005;51.998;4.502;2023-01-23T05:16:00;44.47;;;23.02;;
37091;SDS011;23005;51.998;4.502;2023-01-23T05:17:21;50.45;;;24.67;;
37091;SDS011;23005;51.998;4.502;2023-01-23T05:18:41;47.83;;;24.13;;
37091;SDS011;23005;51.998;4.502;2023-01-23T05:20:02;49.75;;;23.90;;
37091;SDS011;23005;51.998;4.502;2023-01-23T05:21:24;51.30;;;24.70;;
37091;SDS011;23005;51.998;4.502;2023-01-23T05:22:45;53.72;;;24.42;;
37091;SDS011;23005;51.998;4.502;2023-01-23T05:24:06;49.30;;;23.98;;
37091;SDS011;23005;51.998;4.502;2023-01-23T05:25:27;55.80;;;27.20;;
37091;SDS011;23005;51.998;4.502;2023-01-23T05:26:47;44.17;;;24.60;;
37091;SDS011;23005;51.998;4.502;2023-01-23T05:28:08;47.42;;;23.60;;
37091;SDS011;23005;51.998;4.502;2023-01-23T05:29:31;47.47;;;23.98;;
37091;SDS011;23005;51.998;4.502;2023-01-23T05:30:52;55.17;;;25.67;;
37091;SDS011;23005;51.998;4.502;2023-01-23T05:32:12;48.07;;;25.37;;
37091;SDS011;23005;51.998;4.502;2023-01-23T05:33:33;51.90;;;24.77;;
37091;SDS011;23005;51.998;4.502;2023-01-23T05:34:53;51.15;;;25.85;;
37091;SDS011;23005;51.998;4.502;2023-01-23T05:36:14;53.15;;;25.67;;
37091;SDS011;23005;51.998;4.502;2023-01-23T05:37:37;48.88;;;23.98;;
37091;SDS011;23005;51.998;4.502;2023-01-23T05:38:59;50.95;;;25.88;;
37091;SDS011;23005;51.998;4.502;2023-01-23T05:40:20;46.58;;;24.05;;
37091;SDS011;23005;51.998;4.502;2023-01-23T05:41:41;44.88;;;22.67;;
37091;SDS011;23005;51.998;4.502;2023-01-23T05:43:02;47.33;;;24.17;;
37091;SDS011;23005;51.998;4.502;2023-01-23T05:44:22;45.50;;;24.98;;
37091;SDS011;23005;51.998;4.502;2023-01-23T05:45:43;44.90;;;23.97;;
37091;SDS011;23005;51.998;4.502;2023-01-23T05:47:04;46.42;;;24.05;;
37091;SDS011;23005;51.998;4.502;2023-01-23T05:48:24;44.38;;;23.38;;
37091;SDS011;23005;51.998;4.502;2023-01-23T05:49:45;53.97;;;22.15;;
37091;SDS011;23005;51.998;4.502;2023-01-23T05:51:05;50.60;;;25.13;;
37091;SDS011;23005;51.998;4.502;2023-01-23T05:52:26;49.28;;;26.30;;
37091;SDS011;23005;51.998;4.502;2023-01-23T05:53:47;52.97;;;25.17;;
37091;SDS011;23005;51.998;4.502;2023-01-23T05:55:09;50.28;;;25.15;;
37091;SDS011;23005;51.998;4.502;2023-01-23T05:56:29;50.50;;;25.15;;
37091;SDS011;23005;51.998;4.502;2023-01-23T05:57:50;47.85;;;24.85;;
37091;SDS011;23005;51.998;4.502;2023-01-23T05:59:10;48.65;;;23.98;;
37091;SDS011;23005;51.998;4.502;2023-01-23T06:00:31;45.10;;;24.27;;
37091;SDS011;23005;51.998;4.502;2023-01-23T06:01:52;60.30;;;27.55;;
37091;SDS011;23005;51.998;4.502;2023-01-23T06:03:13;53.90;;;26.50;;
37091;SDS011;23005;51.998;4.502;2023-01-23T06:04:33;52.88;;;27.73;;
37091;SDS011;23005;51.998;4.502;2023-01-23T06:05:54;58.90;;;28.20;;
37091;SDS011;23005;51.998;4.502;2023-01-23T06:07:15;59.55;;;28.48;;
37091;SDS011;23005;51.998;4.502;2023-01-23T06:08:37;56.75;;;28.67;;
37091;SDS011;23005;51.998;4.502;2023-01-23T06:09:58;45.63;;;25.20;;
37091;SDS011;23005;51.998;4.502;2023-01-23T06:11:20;62.08;;;29.27;;
37091;SDS011;23005;51.998;4.502;2023-01-23T06:12:43;53.25;;;27.80;;
37091;SDS011;23005;51.998;4.502;2023-01-23T06:14:04;54.95;;;29.10;;
37091;SDS011;23005;51.998;4.502;2023-01-23T06:15:24;45.17;;;24.70;;
37091;SDS011;23005;51.998;4.502;2023-01-23T06:16:44;56.72;;;27.20;;
37091;SDS011;23005;51.998;4.502;2023-01-23T06:18:05;54.13;;;27.75;;
37091;SDS011;23005;51.998;4.502;2023-01-23T06:19:25;58.42;;;28.25;;
37091;SDS011;23005;51.998;4.502;2023-01-23T06:20:46;53.72;;;26.40;;
37091;SDS011;23005;51.998;4.502;2023-01-23T06:22:06;58.30;;;27.70;;
37091;SDS011;23005;51.998;4.502;2023-01-23T06:23:27;52.42;;;28.25;;
37091;SDS011;23005;51.998;4.502;2023-01-23T06:24:48;54.55;;;27.70;;
37091;SDS011;23005;51.998;4.502;2023-01-23T06:26:09;59.45;;;28.63;;
37091;SDS011;23005;51.998;4.502;2023-01-23T06:27:30;63.65;;;29.77;;
37091;SDS011;23005;51.998;4.502;2023-01-23T06:28:51;53.25;;;26.48;;
37091;SDS011;23005;51.998;4.502;2023-01-23T06:30:12;61.70;;;28.13;;
37091;SDS011;23005;51.998;4.502;2023-01-23T06:32:54;64.03;;;27.55;;
37091;SDS011;23005;51.998;4.502;2023-01-23T06:34:14;61.38;;;30.67;;
37091;SDS011;23005;51.998;4.502;2023-01-23T06:35:35;58.00;;;28.48;;
37091;SDS011;23005;51.998;4.502;2023-01-23T06:36:55;62.92;;;29.27;;
37091;SDS011;23005;51.998;4.502;2023-01-23T06:38:16;57.92;;;29.23;;
37091;SDS011;23005;51.998;4.502;2023-01-23T06:39:36;67.72;;;30.80;;
37091;SDS011;23005;51.998;4.502;2023-01-23T06:40:57;54.67;;;29.08;;
37091;SDS011;23005;51.998;4.502;2023-01-23T06:42:18;59.55;;;29.63;;
37091;SDS011;23005;51.998;4.502;2023-01-23T06:43:40;59.37;;;29.47;;
37091;SDS011;23005;51.998;4.502;2023-01-23T06:45:01;57.50;;;26.88;;
37091;SDS011;23005;51.998;4.502;2023-01-23T06:46:21;59.95;;;29.85;;
37091;SDS011;23005;51.998;4.502;2023-01-23T06:47:42;64.80;;;30.40;;
37091;SDS011;23005;51.998;4.502;2023-01-23T06:49:03;59.83;;;29.20;;
37091;SDS011;23005;51.998;4.502;2023-01-23T06:50:25;57.90;;;29.60;;
37091;SDS011;23005;51.998;4.502;2023-01-23T06:51:46;58.33;;;30.02;;
37091;SDS011;23005;51.998;4.502;2023-01-23T06:53:07;63.42;;;30.95;;
37091;SDS011;23005;51.998;4.502;2023-01-23T06:54:28;59.47;;;28.58;;
37091;SDS011;23005;51.998;4.502;2023-01-23T06:55:49;51.67;;;28.50;;
37091;SDS011;23005;51.998;4.502;2023-01-23T06:57:09;49.17;;;27.45;;
37091;SDS011;23005;51.998;4.502;2023-01-23T06:58:30;58.05;;;30.42;;
37091;SDS011;23005;51.998;4.502;2023-01-23T06:59:52;55.05;;;27.67;;
37091;SDS011;23005;51.998;4.502;2023-01-23T07:01:13;51.10;;;26.20;;
37091;SDS011;23005;51.998;4.502;2023-01-23T07:02:36;53.92;;;27.40;;
37091;SDS011;23005;51.998;4.502;2023-01-23T07:03:56;57.33;;;28.15;;
37091;SDS011;23005;51.998;4.502;2023-01-23T07:05:17;50.17;;;27.20;;
37091;SDS011;23005;51.998;4.502;2023-01-23T07:06:38;54.50;;;28.23;;
37091;SDS011;23005;51.998;4.502;2023-01-23T07:07:58;48.23;;;25.40;;
37091;SDS011;23005;51.998;4.502;2023-01-23T07:09:19;57.38;;;27.90;;
37091;SDS011;23005;51.998;4.502;2023-01-23T07:10:39;50.92;;;27.13;;
37091;SDS011;23005;51.998;4.502;2023-01-23T07:12:00;45.00;;;25.60;;
37091;SDS011;23005;51.998;4.502;2023-01-23T07:13:20;60.40;;;27.02;;
37091;SDS011;23005;51.998;4.502;2023-01-23T07:14:41;60.75;;;28.83;;
37091;SDS011;23005;51.998;4.502;2023-01-23T07:16:03;58.10;;;27.45;;
37091;SDS011;23005;51.998;4.502;2023-01-23T07:17:24;49.50;;;26.42;;
37091;SDS011;23005;51.998;4.502;2023-01-23T07:18:44;62.05;;;29.38;;
37091;SDS011;23005;51.998;4.502;2023-01-23T07:20:06;49.55;;;27.35;;
37091;SDS011;23005;51.998;4.502;2023-01-23T07:21:27;56.92;;;28.17;;
37091;SDS011;23005;51.998;4.502;2023-01-23T07:22:48;48.03;;;26.75;;
37091;SDS011;23005;51.998;4.502;2023-01-23T07:24:09;57.78;;;27.88;;
37091;SDS011;23005;51.998;4.502;2023-01-23T07:25:30;57.93;;;27.20;;
37091;SDS011;23005;51.998;4.502;2023-01-23T07:26:50;51.88;;;27.45;;
37091;SDS011;23005;51.998;4.502;2023-01-23T07:28:11;47.88;;;27.17;;
37091;SDS011;23005;51.998;4.502;2023-01-23T07:29:32;56.45;;;29.38;;
37091;SDS011;23005;51.998;4.502;2023-01-23T07:30:53;49.72;;;26.23;;
37091;SDS011;23005;51.998;4.502;2023-01-23T07:32:15;54.72;;;27.95;;
37091;SDS011;23005;51.998;4.502;2023-01-23T07:33:35;53.95;;;29.02;;
37091;SDS011;23005;51.998;4.502;2023-01-23T07:34:56;55.17;;;27.50;;
37091;SDS011;23005;51.998;4.502;2023-01-23T07:36:17;54.28;;;27.17;;
37091;SDS011;23005;51.998;4.502;2023-01-23T07:37:38;63.20;;;31.40;;
37091;SDS011;23005;51.998;4.502;2023-01-23T07:38:58;56.15;;;28.80;;
37091;SDS011;23005;51.998;4.502;2023-01-23T07:40:19;57.03;;;28.73;;
37091;SDS011;23005;51.998;4.502;2023-01-23T07:41:42;58.50;;;28.00;;
37091;SDS011;23005;51.998;4.502;2023-01-23T07:43:05;55.50;;;29.98;;
37091;SDS011;23005;51.998;4.502;2023-01-23T07:44:26;56.75;;;29.80;;
37091;SDS011;23005;51.998;4.502;2023-01-23T07:45:47;59.83;;;28.63;;
37091;SDS011;23005;51.998;4.502;2023-01-23T07:47:07;64.50;;;30.05;;
37091;SDS011;23005;51.998;4.502;2023-01-23T07:48:29;63.55;;;31.33;;
37091;SDS011;23005;51.998;4.502;2023-01-23T07:49:50;69.20;;;32.47;;
37091;SDS011;23005;51.998;4.502;2023-01-23T07:51:11;54.55;;;28.83;;
37091;SDS011;23005;51.998;4.502;2023-01-23T07:52:31;54.78;;;28.55;;
37091;SDS011;23005;51.998;4.502;2023-01-23T07:53:51;56.72;;;29.02;;
37091;SDS011;23005;51.998;4.502;2023-01-23T07:55:12;55.00;;;29.27;;
37091;SDS011;23005;51.998;4.502;2023-01-23T07:56:33;56.00;;;27.73;;
37091;SDS011;23005;51.998;4.502;2023-01-23T07:57:54;58.72;;;30.25;;
37091;SDS011;23005;51.998;4.502;2023-01-23T07:59:14;63.17;;;30.80;;
37091;SDS011;23005;51.998;4.502;2023-01-23T08:00:35;54.65;;;28.60;;